Terminal Aerodrome Forecast
Issued by NWS

Home | Current Version | Previous Version | Text Only | Print | Product List | Glossary On
Versions: 1 2 3 4 5 6 7 8 9 10 11 12 13 14 15 16 17 18 19 20 21 22 23 24 25 26
846
FTUS46 KEKA 182057 AAA
TAFUKI
TAF AMD
KUKI 182057Z 1821/1918 16015G25KT 3SM RA BR FEW012 BKN019 OVC025
      TEMPO 1822/1824 6SM -RA BR SCT015 OVC025
     FM190400 15008KT 4SM -RA BR FEW008 OVC015
     FM191000 19004KT 4SM -SHRA BR SCT025 OVC050=

USA.gov is the U.S. government's official web portal to all federal, state and local government web resources and services.